sensor_id;sensor_type;location;lat;lon;timestamp;pressure;altitude;pressure_sealevel;temperature;humidity
39267;BME280;24967;51.154;13.812;2023-05-22T00:00:46;99523.09;;;17.82;67.51
39267;BME280;24967;51.154;13.812;2023-05-22T00:03:12;99518.69;;;17.74;67.99
39267;BME280;24967;51.154;13.812;2023-05-22T00:05:39;99523.63;;;17.71;68.02
39267;BME280;24967;51.154;13.812;2023-05-22T00:08:05;99515.97;;;17.68;68.05
39267;BME280;24967;51.154;13.812;2023-05-22T00:10:37;99515.31;;;17.66;68.19
39267;BME280;24967;51.154;13.812;2023-05-22T00:13:03;99517.34;;;17.63;68.14
39267;BME280;24967;51.154;13.812;2023-05-22T00:15:30;99514.88;;;17.62;68.02
39267;BME280;24967;51.154;13.812;2023-05-22T00:17:56;99508.88;;;17.60;68.10
39267;BME280;24967;51.154;13.812;2023-05-22T00:20:23;99503.31;;;17.61;67.93
39267;BME280;24967;51.154;13.812;2023-05-22T00:22:50;99504.91;;;17.56;67.90
39267;BME280;24967;51.154;13.812;2023-05-22T00:25:18;99510.88;;;17.51;68.07
39267;BME280;24967;51.154;13.812;2023-05-22T00:27:46;99504.66;;;17.51;68.04
39267;BME280;24967;51.154;13.812;2023-05-22T00:30:13;99504.63;;;17.44;68.16
39267;BME280;24967;51.154;13.812;2023-05-22T00:32:39;99496.13;;;17.40;68.18
39267;BME280;24967;51.154;13.812;2023-05-22T00:35:07;99500.03;;;17.38;68.17
39267;BME280;24967;51.154;13.812;2023-05-22T00:37:34;99502.06;;;17.36;68.32
39267;BME280;24967;51.154;13.812;2023-05-22T00:40:00;99503.13;;;17.35;68.37
39267;BME280;24967;51.154;13.812;2023-05-22T00:42:27;99497.91;;;17.33;68.41
39267;BME280;24967;51.154;13.812;2023-05-22T00:44:54;99500.00;;;17.31;68.45
39267;BME280;24967;51.154;13.812;2023-05-22T00:47:21;99496.88;;;17.28;68.54
39267;BME280;24967;51.154;13.812;2023-05-22T00:49:47;99495.56;;;17.24;68.69
39267;BME280;24967;51.154;13.812;2023-05-22T00:52:14;99500.94;;;17.24;68.64
39267;BME280;24967;51.154;13.812;2023-05-22T00:54:41;99489.78;;;17.20;68.77
39267;BME280;24967;51.154;13.812;2023-05-22T00:57:08;99497.78;;;17.13;68.80
39267;BME280;24967;51.154;13.812;2023-05-22T00:59:36;99498.78;;;17.12;68.77
39267;BME280;24967;51.154;13.812;2023-05-22T01:02:04;99499.38;;;17.08;68.83
39267;BME280;24967;51.154;13.812;2023-05-22T01:04:30;99494.97;;;17.00;68.74
39267;BME280;24967;51.154;13.812;2023-05-22T01:06:57;99496.59;;;16.94;69.08
39267;BME280;24967;51.154;13.812;2023-05-22T01:09:27;99502.34;;;16.91;69.38
39267;BME280;24967;51.154;13.812;2023-05-22T01:11:58;99496.50;;;16.88;69.44
39267;BME280;24967;51.154;13.812;2023-05-22T01:14:33;99498.31;;;16.81;69.69
39267;BME280;24967;51.154;13.812;2023-05-22T01:17:10;99503.03;;;16.79;69.65
39267;BME280;24967;51.154;13.812;2023-05-22T01:20:04;99508.13;;;16.74;69.14
39267;BME280;24967;51.154;13.812;2023-05-22T01:22:53;99507.03;;;16.68;69.01
39267;BME280;24967;51.154;13.812;2023-05-22T01:25:39;99510.94;;;16.65;68.86
39267;BME280;24967;51.154;13.812;2023-05-22T01:28:24;99508.34;;;16.57;68.96
39267;BME280;24967;51.154;13.812;2023-05-22T01:31:00;99507.47;;;16.50;68.96
39267;BME280;24967;51.154;13.812;2023-05-22T01:33:31;99506.53;;;16.43;69.42
39267;BME280;24967;51.154;13.812;2023-05-22T01:35:59;99511.72;;;16.44;69.55
39267;BME280;24967;51.154;13.812;2023-05-22T01:38:27;99506.09;;;16.39;69.69
39267;BME280;24967;51.154;13.812;2023-05-22T01:40:55;99517.03;;;16.38;69.61
39267;BME280;24967;51.154;13.812;2023-05-22T01:43:22;99516.56;;;16.34;69.83
39267;BME280;24967;51.154;13.812;2023-05-22T01:45:48;99517.13;;;16.30;70.00
39267;BME280;24967;51.154;13.812;2023-05-22T01:48:16;99518.31;;;16.27;70.21
39267;BME280;24967;51.154;13.812;2023-05-22T01:50:43;99519.53;;;16.24;70.25
39267;BME280;24967;51.154;13.812;2023-05-22T01:53:14;99517.88;;;16.23;70.25
39267;BME280;24967;51.154;13.812;2023-05-22T01:55:47;99517.59;;;16.18;70.41
39267;BME280;24967;51.154;13.812;2023-05-22T01:58:24;99516.78;;;16.18;70.43
39267;BME280;24967;51.154;13.812;2023-05-22T02:00:51;99517.81;;;16.17;70.67
39267;BME280;24967;51.154;13.812;2023-05-22T02:03:26;99513.47;;;16.16;70.88
39267;BME280;24967;51.154;13.812;2023-05-22T02:05:58;99515.88;;;16.11;70.96
39267;BME280;24967;51.154;13.812;2023-05-22T02:08:25;99512.97;;;16.12;71.16
39267;BME280;24967;51.154;13.812;2023-05-22T02:10:54;99512.91;;;16.06;71.21
39267;BME280;24967;51.154;13.812;2023-05-22T02:13:21;99505.69;;;16.06;71.20
39267;BME280;24967;51.154;13.812;2023-05-22T02:15:48;99510.59;;;16.02;71.24
39267;BME280;24967;51.154;13.812;2023-05-22T02:18:16;99505.44;;;16.01;71.36
39267;BME280;24967;51.154;13.812;2023-05-22T02:20:44;99507.63;;;15.97;71.59
39267;BME280;24967;51.154;13.812;2023-05-22T02:23:11;99500.16;;;15.93;71.63
39267;BME280;24967;51.154;13.812;2023-05-22T02:25:37;99498.03;;;15.88;71.83
39267;BME280;24967;51.154;13.812;2023-05-22T02:28:04;99505.25;;;15.88;71.97
39267;BME280;24967;51.154;13.812;2023-05-22T02:30:30;99503.75;;;15.85;72.15
39267;BME280;24967;51.154;13.812;2023-05-22T02:32:57;99498.41;;;15.85;72.25
39267;BME280;24967;51.154;13.812;2023-05-22T02:35:24;99494.63;;;15.79;72.59
39267;BME280;24967;51.154;13.812;2023-05-22T02:37:52;99498.31;;;15.78;72.78
39267;BME280;24967;51.154;13.812;2023-05-22T02:40:18;99496.00;;;15.75;73.27
39267;BME280;24967;51.154;13.812;2023-05-22T02:42:44;99486.78;;;15.78;72.97
39267;BME280;24967;51.154;13.812;2023-05-22T02:45:11;99485.56;;;15.80;73.19
39267;BME280;24967;51.154;13.812;2023-05-22T02:47:37;99492.78;;;15.80;73.08
39267;BME280;24967;51.154;13.812;2023-05-22T02:50:05;99478.72;;;15.78;72.96
39267;BME280;24967;51.154;13.812;2023-05-22T02:52:32;99484.28;;;15.76;72.96
39267;BME280;24967;51.154;13.812;2023-05-22T02:55:00;99484.66;;;15.73;73.06
39267;BME280;24967;51.154;13.812;2023-05-22T02:57:26;99488.53;;;15.71;73.22
39267;BME280;24967;51.154;13.812;2023-05-22T02:59:53;99482.34;;;15.70;73.19
39267;BME280;24967;51.154;13.812;2023-05-22T03:02:19;99483.34;;;15.69;73.14
39267;BME280;24967;51.154;13.812;2023-05-22T03:04:46;99478.19;;;15.68;73.05
39267;BME280;24967;51.154;13.812;2023-05-22T03:07:12;99481.00;;;15.66;73.06
39267;BME280;24967;51.154;13.812;2023-05-22T03:09:39;99475.84;;;15.65;73.13
39267;BME280;24967;51.154;13.812;2023-05-22T03:12:08;99475.31;;;15.69;72.94
39267;BME280;24967;51.154;13.812;2023-05-22T03:14:34;99479.34;;;15.65;73.02
39267;BME280;24967;51.154;13.812;2023-05-22T03:17:01;99478.53;;;15.65;72.99
39267;BME280;24967;51.154;13.812;2023-05-22T03:19:27;99481.22;;;15.65;72.85
39267;BME280;24967;51.154;13.812;2023-05-22T03:21:54;99473.63;;;15.53;72.91
39267;BME280;24967;51.154;13.812;2023-05-22T03:24:21;99468.06;;;15.55;72.85
39267;BME280;24967;51.154;13.812;2023-05-22T03:26:48;99473.97;;;15.50;72.81
39267;BME280;24967;51.154;13.812;2023-05-22T03:29:16;99471.47;;;15.49;73.02
39267;BME280;24967;51.154;13.812;2023-05-22T03:31:42;99465.84;;;15.44;73.12
39267;BME280;24967;51.154;13.812;2023-05-22T03:34:09;99467.88;;;15.42;73.25
39267;BME280;24967;51.154;13.812;2023-05-22T03:36:35;99467.50;;;15.45;73.33
39267;BME280;24967;51.154;13.812;2023-05-22T03:39:02;99469.16;;;15.46;73.44
39267;BME280;24967;51.154;13.812;2023-05-22T03:41:29;99459.47;;;15.45;73.58
39267;BME280;24967;51.154;13.812;2023-05-22T03:43:56;99465.13;;;15.50;73.84
39267;BME280;24967;51.154;13.812;2023-05-22T03:46:24;99460.38;;;15.52;74.06
39267;BME280;24967;51.154;13.812;2023-05-22T03:48:51;99473.25;;;15.56;74.26
39267;BME280;24967;51.154;13.812;2023-05-22T03:51:17;99469.53;;;15.57;74.81
39267;BME280;24967;51.154;13.812;2023-05-22T03:53:43;99464.19;;;15.57;75.31
39267;BME280;24967;51.154;13.812;2023-05-22T03:56:10;99467.16;;;15.63;75.82
39267;BME280;24967;51.154;13.812;2023-05-22T03:58:36;99464.59;;;15.69;75.78
39267;BME280;24967;51.154;13.812;2023-05-22T04:01:04;99462.19;;;15.74;75.45
39267;BME280;24967;51.154;13.812;2023-05-22T04:03:31;99466.81;;;15.80;75.28
39267;BME280;24967;51.154;13.812;2023-05-22T04:05:58;99456.00;;;15.89;75.13
39267;BME280;24967;51.154;13.812;2023-05-22T04:08:24;99456.00;;;15.89;75.09
39267;BME280;24967;51.154;13.812;2023-05-22T04:10:51;99460.78;;;15.93;74.86
39267;BME280;24967;51.154;13.812;2023-05-22T04:13:18;99465.13;;;15.94;75.73
39267;BME280;24967;51.154;13.812;2023-05-22T04:15:45;99456.69;;;15.97;75.88
39267;BME280;24967;51.154;13.812;2023-05-22T04:18:11;99456.06;;;15.95;76.98
39267;BME280;24967;51.154;13.812;2023-05-22T04:20:39;99464.38;;;16.00;77.90
39267;BME280;24967;51.154;13.812;2023-05-22T04:23:07;99459.72;;;16.09;78.36
39267;BME280;24967;51.154;13.812;2023-05-22T04:25:33;99462.75;;;16.21;78.19
39267;BME280;24967;51.154;13.812;2023-05-22T04:28:00;99459.53;;;16.25;78.63
39267;BME280;24967;51.154;13.812;2023-05-22T04:30:28;99461.00;;;16.28;79.60
39267;BME280;24967;51.154;13.812;2023-05-22T04:32:54;99461.97;;;16.42;79.17
39267;BME280;24967;51.154;13.812;2023-05-22T04:35:21;99456.75;;;16.55;78.76
39267;BME280;24967;51.154;13.812;2023-05-22T04:37:49;99461.84;;;16.71;78.40
39267;BME280;24967;51.154;13.812;2023-05-22T04:40:15;99465.66;;;16.77;78.78
39267;BME280;24967;51.154;13.812;2023-05-22T04:42:42;99465.84;;;16.76;80.08
39267;BME280;24967;51.154;13.812;2023-05-22T04:45:09;99471.06;;;16.84;80.44
39267;BME280;24967;51.154;13.812;2023-05-22T04:47:38;99462.94;;;16.99;79.81
39267;BME280;24967;51.154;13.812;2023-05-22T04:50:06;99468.63;;;17.10;80.15
39267;BME280;24967;51.154;13.812;2023-05-22T04:52:33;99461.88;;;17.21;80.34
39267;BME280;24967;51.154;13.812;2023-05-22T04:55:01;99463.47;;;17.37;80.13
39267;BME280;24967;51.154;13.812;2023-05-22T04:57:33;99468.25;;;17.48;80.51
39267;BME280;24967;51.154;13.812;2023-05-22T05:00:00;99468.78;;;17.65;80.04
39267;BME280;24967;51.154;13.812;2023-05-22T05:02:28;99467.88;;;17.79;79.68
39267;BME280;24967;51.154;13.812;2023-05-22T05:04:55;99466.88;;;17.87;78.99
39267;BME280;24967;51.154;13.812;2023-05-22T05:07:21;99461.56;;;18.00;78.51
39267;BME280;24967;51.154;13.812;2023-05-22T05:09:48;99464.72;;;18.17;77.41
39267;BME280;24967;51.154;13.812;2023-05-22T05:12:16;99465.81;;;18.36;76.84
39267;BME280;24967;51.154;13.812;2023-05-22T05:14:42;99457.56;;;18.58;75.99
39267;BME280;24967;51.154;13.812;2023-05-22T05:17:08;99457.84;;;18.83;74.87
39267;BME280;24967;51.154;13.812;2023-05-22T05:19:35;99460.13;;;18.86;74.75
39267;BME280;24967;51.154;13.812;2023-05-22T05:22:01;99456.41;;;19.20;73.55
39267;BME280;24967;51.154;13.812;2023-05-22T05:24:28;99462.81;;;19.45;73.13
39267;BME280;24967;51.154;13.812;2023-05-22T05:26:54;99467.56;;;19.70;72.27
39267;BME280;24967;51.154;13.812;2023-05-22T05:29:22;99466.63;;;19.96;71.35
39267;BME280;24967;51.154;13.812;2023-05-22T05:31:48;99467.00;;;20.13;70.20
39267;BME280;24967;51.154;13.812;2023-05-22T05:34:15;99468.16;;;20.24;70.57
39267;BME280;24967;51.154;13.812;2023-05-22T05:36:42;99471.88;;;20.29;71.08
39267;BME280;24967;51.154;13.812;2023-05-22T05:39:10;99466.38;;;20.49;69.84
39267;BME280;24967;51.154;13.812;2023-05-22T05:41:38;99470.72;;;20.50;68.80
39267;BME280;24967;51.154;13.812;2023-05-22T05:44:04;99477.13;;;20.63;68.32
39267;BME280;24967;51.154;13.812;2023-05-22T05:46:33;99472.69;;;20.75;68.29
39267;BME280;24967;51.154;13.812;2023-05-22T05:48:59;99466.16;;;20.89;69.98
39267;BME280;24967;51.154;13.812;2023-05-22T05:51:26;99468.53;;;21.04;70.13
39267;BME280;24967;51.154;13.812;2023-05-22T05:53:52;99468.34;;;21.24;69.05
39267;BME280;24967;51.154;13.812;2023-05-22T05:56:19;99470.44;;;21.47;68.97
39267;BME280;24967;51.154;13.812;2023-05-22T05:58:45;99460.34;;;21.79;67.58
39267;BME280;24967;51.154;13.812;2023-05-22T06:01:12;99467.53;;;22.04;66.03
39267;BME280;24967;51.154;13.812;2023-05-22T06:03:40;99462.13;;;22.22;65.97
39267;BME280;24967;51.154;13.812;2023-05-22T06:06:06;99453.16;;;22.40;65.51
39267;BME280;24967;51.154;13.812;2023-05-22T06:08:33;99454.88;;;22.64;65.24
39267;BME280;24967;51.154;13.812;2023-05-22T06:10:59;99461.19;;;22.89;63.07
39267;BME280;24967;51.154;13.812;2023-05-22T06:13:26;99451.56;;;23.16;63.54
39267;BME280;24967;51.154;13.812;2023-05-22T06:15:52;99459.72;;;23.28;62.67
39267;BME280;24967;51.154;13.812;2023-05-22T06:18:19;99454.88;;;23.53;62.09
39267;BME280;24967;51.154;13.812;2023-05-22T06:20:47;99452.28;;;23.82;59.40
39267;BME280;24967;51.154;13.812;2023-05-22T06:23:13;99451.03;;;24.02;59.89
39267;BME280;24967;51.154;13.812;2023-05-22T06:25:40;99446.25;;;24.20;58.95
39267;BME280;24967;51.154;13.812;2023-05-22T06:28:07;99447.00;;;24.44;57.13
39267;BME280;24967;51.154;13.812;2023-05-22T06:30:34;99444.34;;;24.61;57.42
39267;BME280;24967;51.154;13.812;2023-05-22T06:33:01;99453.00;;;24.75;57.17
39267;BME280;24967;51.154;13.812;2023-05-22T06:35:28;99443.94;;;24.86;58.73
39267;BME280;24967;51.154;13.812;2023-05-22T06:37:56;99441.16;;;24.98;59.19
39267;BME280;24967;51.154;13.812;2023-05-22T06:40:23;99443.13;;;25.03;57.64
39267;BME280;24967;51.154;13.812;2023-05-22T06:42:49;99443.97;;;25.20;54.99
39267;BME280;24967;51.154;13.812;2023-05-22T06:45:16;99436.97;;;25.24;53.70
39267;BME280;24967;51.154;13.812;2023-05-22T06:47:44;99436.63;;;25.38;54.26
39267;BME280;24967;51.154;13.812;2023-05-22T06:50:10;99438.19;;;25.33;53.25
39267;BME280;24967;51.154;13.812;2023-05-22T06:52:37;99442.47;;;25.29;54.22
39267;BME280;24967;51.154;13.812;2023-05-22T06:55:05;99440.41;;;25.36;53.78
39267;BME280;24967;51.154;13.812;2023-05-22T06:57:32;99433.28;;;25.52;53.72
39267;BME280;24967;51.154;13.812;2023-05-22T06:59:59;99441.56;;;25.63;53.38
39267;BME280;24967;51.154;13.812;2023-05-22T07:02:26;99436.75;;;25.87;54.38
39267;BME280;24967;51.154;13.812;2023-05-22T07:04:52;99440.25;;;26.04;53.16
39267;BME280;24967;51.154;13.812;2023-05-22T07:07:18;99439.44;;;26.31;53.45
39267;BME280;24967;51.154;13.812;2023-05-22T07:09:45;99439.03;;;26.44;51.56
39267;BME280;24967;51.154;13.812;2023-05-22T07:12:13;99440.38;;;26.68;49.08
39267;BME280;24967;51.154;13.812;2023-05-22T07:14:39;99433.31;;;26.67;48.55
39267;BME280;24967;51.154;13.812;2023-05-22T07:17:06;99436.91;;;26.73;48.66
39267;BME280;24967;51.154;13.812;2023-05-22T07:19:33;99427.91;;;26.72;46.31
39267;BME280;24967;51.154;13.812;2023-05-22T07:21:59;99424.97;;;26.79;47.96
39267;BME280;24967;51.154;13.812;2023-05-22T07:24:26;99426.28;;;26.77;46.37
39267;BME280;24967;51.154;13.812;2023-05-22T07:26:52;99426.69;;;26.90;47.05
39267;BME280;24967;51.154;13.812;2023-05-22T07:29:20;99425.72;;;27.07;46.40
39267;BME280;24967;51.154;13.812;2023-05-22T07:31:46;99425.03;;;27.22;43.97
39267;BME280;24967;51.154;13.812;2023-05-22T07:34:13;99430.34;;;27.38;46.34
39267;BME280;24967;51.154;13.812;2023-05-22T07:36:39;99422.53;;;27.62;46.59
39267;BME280;24967;51.154;13.812;2023-05-22T07:39:06;99425.81;;;27.64;44.60
39267;BME280;24967;51.154;13.812;2023-05-22T07:41:33;99419.81;;;27.62;43.25
39267;BME280;24967;51.154;13.812;2023-05-22T07:44:00;99415.84;;;27.85;42.84
39267;BME280;24967;51.154;13.812;2023-05-22T07:46:28;99419.41;;;27.86;43.89
39267;BME280;24967;51.154;13.812;2023-05-22T07:48:54;99418.59;;;27.96;43.93
39267;BME280;24967;51.154;13.812;2023-05-22T07:51:20;99416.03;;;27.74;41.79
39267;BME280;24967;51.154;13.812;2023-05-22T07:53:47;99419.41;;;27.86;42.54
39267;BME280;24967;51.154;13.812;2023-05-22T07:56:13;99413.84;;;27.71;41.87
39267;BME280;24967;51.154;13.812;2023-05-22T07:58:41;99416.81;;;27.64;42.68
39267;BME280;24967;51.154;13.812;2023-05-22T08:01:08;99424.69;;;27.55;41.44
39267;BME280;24967;51.154;13.812;2023-05-22T08:03:36;99418.53;;;27.28;40.45
39267;BME280;24967;51.154;13.812;2023-05-22T08:06:03;99417.13;;;27.25;41.14
39267;BME280;24967;51.154;13.812;2023-05-22T08:08:29;99418.63;;;27.43;42.23
39267;BME280;24967;51.154;13.812;2023-05-22T08:10:56;99409.44;;;27.17;41.69
39267;BME280;24967;51.154;13.812;2023-05-22T08:13:23;99405.28;;;27.09;41.77
39267;BME280;24967;51.154;13.812;2023-05-22T08:15:49;99409.94;;;26.77;42.58
39267;BME280;24967;51.154;13.812;2023-05-22T08:18:16;99414.28;;;26.72;42.07
39267;BME280;24967;51.154;13.812;2023-05-22T08:20:44;99408.13;;;26.87;41.23
39267;BME280;24967;51.154;13.812;2023-05-22T08:23:11;99413.22;;;26.79;40.68
39267;BME280;24967;51.154;13.812;2023-05-22T08:25:38;99404.69;;;27.02;40.91
39267;BME280;24967;51.154;13.812;2023-05-22T08:28:04;99401.25;;;27.17;40.38
39267;BME280;24967;51.154;13.812;2023-05-22T08:30:31;99404.16;;;27.05;41.74
39267;BME280;24967;51.154;13.812;2023-05-22T08:32:57;99403.22;;;27.22;41.63
39267;BME280;24967;51.154;13.812;2023-05-22T08:35:24;99399.66;;;27.21;42.56
39267;BME280;24967;51.154;13.812;2023-05-22T08:37:51;99404.63;;;27.34;42.63
39267;BME280;24967;51.154;13.812;2023-05-22T08:40:19;99402.72;;;27.35;41.80
39267;BME280;24967;51.154;13.812;2023-05-22T08:42:46;99407.03;;;27.21;43.57
39267;BME280;24967;51.154;13.812;2023-05-22T08:45:13;99407.03;;;27.26;43.34
39267;BME280;24967;51.154;13.812;2023-05-22T08:47:41;99415.56;;;27.34;43.09
39267;BME280;24967;51.154;13.812;2023-05-22T08:50:10;99404.59;;;27.29;44.65
39267;BME280;24967;51.154;13.812;2023-05-22T08:52:42;99399.53;;;27.11;44.66
39267;BME280;24967;51.154;13.812;2023-05-22T08:55:13;99398.53;;;27.17;44.53
39267;BME280;24967;51.154;13.812;2023-05-22T08:57:41;99391.59;;;26.99;44.33
39267;BME280;24967;51.154;13.812;2023-05-22T09:00:08;99395.44;;;26.71;45.27
39267;BME280;24967;51.154;13.812;2023-05-22T09:02:36;99394.44;;;26.82;45.37
39267;BME280;24967;51.154;13.812;2023-05-22T09:05:06;99393.34;;;27.15;45.81
39267;BME280;24967;51.154;13.812;2023-05-22T09:07:33;99392.09;;;26.96;43.93
39267;BME280;24967;51.154;13.812;2023-05-22T09:09:59;99393.50;;;27.04;45.07
39267;BME280;24967;51.154;13.812;2023-05-22T09:12:31;99391.59;;;27.04;44.29
39267;BME280;24967;51.154;13.812;2023-05-22T09:15:04;99391.53;;;26.94;44.73
39267;BME280;24967;51.154;13.812;2023-05-22T09:17:32;99390.44;;;26.95;44.86
39267;BME280;24967;51.154;13.812;2023-05-22T09:19:59;99390.00;;;27.08;45.82
39267;BME280;24967;51.154;13.812;2023-05-22T09:22:34;99396.75;;;27.38;44.39
39267;BME280;24967;51.154;13.812;2023-05-22T09:25:00;99388.91;;;27.52;44.03
39267;BME280;24967;51.154;13.812;2023-05-22T09:27:27;99392.22;;;27.54;42.09
39267;BME280;24967;51.154;13.812;2023-05-22T09:30:07;99397.59;;;27.44;41.28
39267;BME280;24967;51.154;13.812;2023-05-22T09:32:41;99395.38;;;27.35;42.37
39267;BME280;24967;51.154;13.812;2023-05-22T09:35:08;99392.69;;;27.03;43.12
39267;BME280;24967;51.154;13.812;2023-05-22T09:37:42;99388.47;;;27.23;42.58
39267;BME280;24967;51.154;13.812;2023-05-22T09:40:32;99390.44;;;26.95;42.20
39267;BME280;24967;51.154;13.812;2023-05-22T09:43:00;99399.06;;;26.82;42.37
39267;BME280;24967;51.154;13.812;2023-05-22T09:45:33;99396.53;;;27.07;43.37
39267;BME280;24967;51.154;13.812;2023-05-22T09:48:12;99395.13;;;27.05;40.88
39267;BME280;24967;51.154;13.812;2023-05-22T09:50:48;99391.50;;;26.89;42.44
39267;BME280;24967;51.154;13.812;2023-05-22T09:53:21;99393.34;;;27.15;43.38
39267;BME280;24967;51.154;13.812;2023-05-22T09:55:57;99392.72;;;27.08;42.21
39267;BME280;24967;51.154;13.812;2023-05-22T09:58:37;99398.28;;;27.18;41.27
39267;BME280;24967;51.154;13.812;2023-05-22T10:01:25;99378.94;;;26.88;39.16
39267;BME280;24967;51.154;13.812;2023-05-22T10:03:56;99387.53;;;26.69;39.72
39267;BME280;24967;51.154;13.812;2023-05-22T10:06:49;99382.63;;;26.71;41.00
39267;BME280;24967;51.154;13.812;2023-05-22T10:09:26;99383.19;;;26.46;41.84
39267;BME280;24967;51.154;13.812;2023-05-22T10:12:05;99379.00;;;26.34;40.62
39267;BME280;24967;51.154;13.812;2023-05-22T10:14:43;99376.13;;;26.18;42.03
39267;BME280;24967;51.154;13.812;2023-05-22T10:17:18;99374.94;;;26.36;42.09
39267;BME280;24967;51.154;13.812;2023-05-22T10:19:48;99371.03;;;26.27;42.97
39267;BME280;24967;51.154;13.812;2023-05-22T10:22:16;99369.53;;;26.14;42.49
39267;BME280;24967;51.154;13.812;2023-05-22T10:24:45;99359.66;;;26.08;41.85
39267;BME280;24967;51.154;13.812;2023-05-22T10:27:24;99367.06;;;26.13;42.69
39267;BME280;24967;51.154;13.812;2023-05-22T10:29:54;99358.38;;;26.43;42.13
39267;BME280;24967;51.154;13.812;2023-05-22T10:32:32;99356.63;;;26.59;42.46
39267;BME280;24967;51.154;13.812;2023-05-22T10:35:06;99359.91;;;26.98;41.14
39267;BME280;24967;51.154;13.812;2023-05-22T10:37:44;99359.66;;;27.42;40.30
39267;BME280;24967;51.154;13.812;2023-05-22T10:40:20;99363.59;;;27.67;39.65
39267;BME280;24967;51.154;13.812;2023-05-22T10:43:12;99356.03;;;27.89;39.95
39267;BME280;24967;51.154;13.812;2023-05-22T10:45:42;99360.66;;;27.83;38.14
39267;BME280;24967;51.154;13.812;2023-05-22T10:48:20;99357.69;;;27.90;38.86
39267;BME280;24967;51.154;13.812;2023-05-22T10:51:04;99357.75;;;28.16;38.88
39267;BME280;24967;51.154;13.812;2023-05-22T10:53:36;99349.03;;;28.34;37.79
39267;BME280;24967;51.154;13.812;2023-05-22T10:56:14;99350.72;;;28.50;38.34
39267;BME280;24967;51.154;13.812;2023-05-22T10:59:01;99347.59;;;27.96;37.29
39267;BME280;24967;51.154;13.812;2023-05-22T11:01:44;99352.75;;;27.82;38.86
39267;BME280;24967;51.154;13.812;2023-05-22T11:04:14;99354.09;;;27.79;38.61
39267;BME280;24967;51.154;13.812;2023-05-22T11:06:44;99345.16;;;27.36;38.51
39267;BME280;24967;51.154;13.812;2023-05-22T11:09:26;99344.41;;;27.51;39.04
39267;BME280;24967;51.154;13.812;2023-05-22T11:12:13;99344.84;;;27.28;38.42
39267;BME280;24967;51.154;13.812;2023-05-22T11:14:42;99335.53;;;27.18;38.27
39267;BME280;24967;51.154;13.812;2023-05-22T11:17:22;99342.69;;;26.92;38.71
39267;BME280;24967;51.154;13.812;2023-05-22T11:20:00;99348.56;;;27.11;39.10
39267;BME280;24967;51.154;13.812;2023-05-22T11:22:35;99337.56;;;26.96;39.22
39267;BME280;24967;51.154;13.812;2023-05-22T11:25:13;99332.84;;;26.86;40.00
39267;BME280;24967;51.154;13.812;2023-05-22T11:27:43;99327.56;;;27.12;40.45
39267;BME280;24967;51.154;13.812;2023-05-22T11:30:27;99325.44;;;27.19;39.86
39267;BME280;24967;51.154;13.812;2023-05-22T11:33:05;99324.53;;;27.13;39.21
39267;BME280;24967;51.154;13.812;2023-05-22T11:35:56;99319.28;;;27.49;38.47
39267;BME280;24967;51.154;13.812;2023-05-22T11:38:35;99323.19;;;27.69;39.53
39267;BME280;24967;51.154;13.812;2023-05-22T11:41:08;99324.53;;;27.71;39.33
39267;BME280;24967;51.154;13.812;2023-05-22T11:43:44;99315.59;;;27.86;38.62
39267;BME280;24967;51.154;13.812;2023-05-22T11:46:11;99317.56;;;28.06;38.39
39267;BME280;24967;51.154;13.812;2023-05-22T11:48:42;99306.41;;;28.33;38.24
39267;BME280;24967;51.154;13.812;2023-05-22T11:51:18;99299.56;;;28.36;37.38
39267;BME280;24967;51.154;13.812;2023-05-22T11:54:01;99303.38;;;28.35;37.24
39267;BME280;24967;51.154;13.812;2023-05-22T11:56:35;99302.03;;;28.58;36.95
39267;BME280;24967;51.154;13.812;2023-05-22T11:59:12;99306.94;;;28.76;36.35
39267;BME280;24967;51.154;13.812;2023-05-22T12:01:58;99306.66;;;28.83;36.54
39267;BME280;24967;51.154;13.812;2023-05-22T12:04:40;99301.75;;;28.69;38.07
39267;BME280;24967;51.154;13.812;2023-05-22T12:07:12;99297.91;;;28.86;37.00
39267;BME280;24967;51.154;13.812;2023-05-22T12:09:48;99293.16;;;29.22;36.61
39267;BME280;24967;51.154;13.812;2023-05-22T12:12:26;99293.78;;;28.93;35.55
39267;BME280;24967;51.154;13.812;2023-05-22T12:15:04;99282.84;;;28.83;36.84
39267;BME280;24967;51.154;13.812;2023-05-22T12:17:34;99286.66;;;28.92;37.23
39267;BME280;24967;51.154;13.812;2023-05-22T12:20:13;99276.78;;;29.17;36.58
39267;BME280;24967;51.154;13.812;2023-05-22T12:25:36;99274.59;;;28.98;35.44
39267;BME280;24967;51.154;13.812;2023-05-22T12:28:19;99273.81;;;29.08;36.55
39267;BME280;24967;51.154;13.812;2023-05-22T12:30:51;99274.38;;;29.05;35.98
39267;BME280;24967;51.154;13.812;2023-05-22T12:33:28;99275.44;;;28.99;35.77
39267;BME280;24967;51.154;13.812;2023-05-22T12:35:58;99274.69;;;28.78;35.80
39267;BME280;24967;51.154;13.812;2023-05-22T12:38:31;99266.22;;;28.39;35.74
39267;BME280;24967;51.154;13.812;2023-05-22T12:41:02;99265.63;;;28.83;36.25
39267;BME280;24967;51.154;13.812;2023-05-22T12:43:31;99262.38;;;28.70;36.28
39267;BME280;24967;51.154;13.812;2023-05-22T12:46:04;99257.97;;;28.90;35.97
39267;BME280;24967;51.154;13.812;2023-05-22T12:48:37;99256.84;;;28.91;35.39
39267;BME280;24967;51.154;13.812;2023-05-22T12:51:07;99255.56;;;28.52;36.05
39267;BME280;24967;51.154;13.812;2023-05-22T12:53:42;99261.59;;;28.54;36.19
39267;BME280;24967;51.154;13.812;2023-05-22T12:56:17;99259.84;;;29.05;36.24
39267;BME280;24967;51.154;13.812;2023-05-22T13:01:36;99262.81;;;29.13;34.72
39267;BME280;24967;51.154;13.812;2023-05-22T13:04:10;99267.66;;;29.37;34.63
39267;BME280;24967;51.154;13.812;2023-05-22T13:06:42;99250.78;;;29.14;34.19
39267;BME280;24967;51.154;13.812;2023-05-22T13:09:14;99250.50;;;29.16;34.70